createdAt,value
2022-09-07T00:02:21.912Z,13.68
2022-09-07T00:04:51.928Z,13.62
2022-09-07T00:07:22.281Z,13.60
2022-09-07T00:09:52.680Z,13.60
2022-09-07T00:12:22.808Z,13.60
2022-09-07T00:14:53.330Z,13.60
2022-09-07T00:17:23.452Z,13.58
2022-09-07T00:19:54.801Z,13.60
2022-09-07T00:22:25.112Z,13.60
2022-09-07T00:24:55.219Z,13.60
2022-09-07T00:27:25.480Z,13.62
2022-09-07T00:29:55.603Z,13.70
2022-09-07T00:32:26.036Z,13.80
2022-09-07T00:34:56.140Z,13.80
2022-09-07T00:37:26.508Z,13.90
2022-09-07T00:39:56.835Z,13.90
2022-09-07T00:42:27.084Z,14.00
2022-09-07T00:45:11.913Z,14.00
2022-09-07T00:47:54.705Z,14.00
2022-09-07T00:50:31.749Z,14.00
2022-09-07T00:53:10.716Z,14.00
2022-09-07T00:55:45.362Z,14.00
2022-09-07T00:58:16.319Z,14.02
2022-09-07T01:00:48.745Z,14.08
2022-09-07T01:03:25.873Z,14.10
2022-09-07T01:06:03.925Z,14.10
2022-09-07T01:08:35.807Z,14.02
2022-09-07T01:11:06.494Z,14.00
2022-09-07T01:13:38.823Z,14.00
2022-09-07T01:16:23.376Z,13.90
2022-09-07T01:19:17.967Z,13.90
2022-09-07T01:22:08.566Z,13.80
2022-09-07T01:24:54.108Z,13.70
2022-09-07T01:28:03.225Z,13.70
2022-09-07T01:30:38.238Z,13.62
2022-09-07T01:33:37.794Z,13.60
2022-09-07T01:36:22.315Z,13.60
2022-09-07T01:38:58.925Z,13.58
2022-09-07T01:41:40.028Z,13.52
2022-09-07T01:44:17.532Z,13.50
2022-09-07T01:47:01.435Z,13.50
2022-09-07T01:49:37.963Z,13.50
2022-09-07T01:52:15.237Z,13.50
2022-09-07T01:54:52.062Z,13.50
2022-09-07T01:57:33.518Z,13.60
2022-09-07T02:00:10.938Z,13.66
2022-09-07T02:02:50.212Z,13.70
2022-09-07T02:05:27.164Z,13.78
2022-09-07T02:08:06.256Z,13.80
2022-09-07T02:10:43.223Z,13.80
2022-09-07T02:13:18.443Z,13.80
2022-09-07T02:15:57.400Z,13.90
2022-09-07T02:18:34.145Z,13.90
2022-09-07T02:21:08.450Z,13.90
2022-09-07T02:23:47.174Z,13.90
2022-09-07T02:26:21.601Z,13.90
2022-09-07T02:28:51.915Z,13.90
2022-09-07T02:31:22.344Z,14.00
2022-09-07T02:33:52.369Z,14.00
2022-09-07T02:36:28.469Z,14.00
2022-09-07T02:38:58.565Z,14.10
2022-09-07T02:41:35.838Z,14.10
2022-09-07T02:44:11.986Z,14.10
2022-09-07T02:47:06.161Z,14.10
2022-09-07T02:50:03.823Z,14.10
2022-09-07T02:52:47.148Z,14.10
2022-09-07T02:55:32.018Z,14.10
2022-09-07T02:58:19.235Z,14.04
2022-09-07T03:00:58.631Z,14.00
2022-09-07T03:03:42.450Z,14.00
2022-09-07T03:06:23.721Z,13.90
2022-09-07T03:08:58.066Z,13.90
2022-09-07T03:11:29.483Z,13.88
2022-09-07T03:14:17.876Z,13.80
2022-09-07T03:16:50.146Z,13.80
2022-09-07T03:19:20.274Z,13.70
2022-09-07T03:21:49.964Z,13.70
2022-09-07T03:24:19.753Z,13.60
2022-09-07T03:26:50.755Z,13.60
2022-09-07T03:29:20.956Z,13.60
2022-09-07T03:31:50.912Z,13.58
2022-09-07T03:34:20.615Z,13.50
2022-09-07T03:36:50.346Z,13.50
2022-09-07T03:39:23.105Z,13.40
2022-09-07T03:41:52.914Z,13.40
2022-09-07T03:44:22.691Z,13.32
2022-09-07T03:46:52.558Z,13.30
2022-09-07T03:49:22.374Z,13.28
2022-09-07T03:51:52.200Z,13.20
2022-09-07T03:54:22.218Z,13.20
2022-09-07T03:56:52.088Z,13.16
2022-09-07T03:59:22.108Z,13.10
2022-09-07T04:01:52.479Z,13.10
2022-09-07T04:04:22.370Z,13.00
2022-09-07T04:06:52.121Z,13.00
2022-09-07T04:09:22.013Z,13.00
2022-09-07T04:11:52.154Z,12.98
2022-09-07T04:14:22.395Z,12.90
2022-09-07T04:16:52.264Z,12.90
2022-09-07T04:19:22.021Z,12.80
2022-09-07T04:21:51.963Z,12.80
2022-09-07T04:24:22.188Z,12.70
2022-09-07T04:26:52.235Z,12.70
2022-09-07T04:29:22.086Z,12.70
2022-09-07T04:31:51.919Z,12.64
2022-09-07T04:34:21.629Z,12.60
2022-09-07T04:36:51.424Z,12.60
2022-09-07T04:39:21.203Z,12.66
2022-09-07T04:41:50.972Z,12.60
2022-09-07T04:44:20.908Z,12.60
2022-09-07T04:46:50.842Z,12.60
2022-09-07T04:49:20.761Z,12.60
2022-09-07T04:51:50.797Z,12.62
2022-09-07T04:54:20.842Z,12.60
2022-09-07T04:56:50.830Z,12.60
2022-09-07T04:59:21.406Z,12.60
2022-09-07T05:01:51.246Z,12.60
2022-09-07T05:04:21.057Z,12.60
2022-09-07T05:06:52.615Z,12.60
2022-09-07T05:09:22.496Z,12.70
2022-09-07T05:11:52.969Z,12.70
2022-09-07T05:14:22.985Z,12.70
2022-09-07T05:16:52.840Z,12.80
2022-09-07T05:19:23.081Z,12.80
2022-09-07T05:21:52.911Z,12.90
2022-09-07T05:24:22.879Z,12.92
2022-09-07T05:26:53.646Z,13.00
2022-09-07T05:32:14.267Z,13.00
2022-09-07T05:34:44.383Z,13.06
2022-09-07T05:37:14.535Z,13.10
2022-09-07T05:39:44.418Z,13.10
2022-09-07T05:42:14.681Z,13.20
2022-09-07T05:44:45.095Z,13.20
2022-09-07T05:47:15.629Z,13.30
2022-09-07T05:49:45.505Z,13.30
2022-09-07T05:52:16.039Z,13.40
2022-09-07T05:54:46.696Z,13.50
2022-09-07T05:57:16.687Z,13.60
2022-09-07T05:59:46.581Z,13.60
2022-09-07T06:02:16.969Z,13.70
2022-09-07T06:04:47.498Z,13.80
2022-09-07T06:07:22.065Z,13.80
2022-09-07T06:12:49.024Z,13.90
2022-09-07T06:15:19.525Z,14.00
2022-09-07T06:17:49.294Z,14.10
2022-09-07T06:20:19.324Z,14.20
2022-09-07T06:22:49.150Z,14.24
2022-09-07T06:25:19.276Z,14.32
2022-09-07T06:27:51.439Z,14.40
2022-09-07T06:30:21.406Z,14.50
2022-09-07T06:32:51.162Z,14.60
2022-09-07T06:35:20.983Z,14.70
2022-09-07T06:37:50.900Z,14.80
2022-09-07T06:40:20.783Z,14.86
2022-09-07T06:42:50.500Z,14.90
2022-09-07T06:45:20.298Z,15.00
2022-09-07T06:47:53.087Z,15.10
2022-09-07T06:50:22.934Z,15.30
2022-09-07T06:55:46.301Z,15.50
2022-09-07T06:58:16.214Z,15.60
2022-09-07T07:00:46.992Z,15.70
2022-09-07T07:03:17.670Z,15.80
2022-09-07T07:05:53.553Z,15.80
2022-09-07T07:08:25.498Z,15.90
2022-09-07T07:10:56.293Z,16.00
2022-09-07T07:13:27.691Z,16.00
2022-09-07T07:16:05.631Z,16.08
2022-09-07T07:18:37.203Z,16.12
2022-09-07T07:21:11.103Z,16.20
2022-09-07T07:23:41.875Z,16.30
2022-09-07T07:26:16.367Z,16.40
2022-09-07T07:31:32.620Z,16.60
2022-09-07T07:34:03.167Z,16.72
2022-09-07T07:36:36.975Z,16.80
2022-09-07T07:39:07.042Z,16.96
2022-09-07T07:44:22.823Z,17.18
2022-09-07T07:46:53.250Z,17.30
2022-09-07T07:49:23.543Z,17.40
2022-09-07T07:54:45.685Z,17.80
2022-09-07T07:57:18.390Z,17.90
2022-09-07T07:59:48.462Z,18.10
2022-09-07T08:02:18.829Z,18.30
2022-09-07T08:04:48.725Z,18.40
2022-09-07T08:07:19.452Z,18.52
2022-09-07T08:09:55.241Z,18.68
2022-09-07T08:12:29.554Z,18.80
2022-09-07T08:14:59.669Z,19.00
2022-09-07T08:17:34.391Z,19.20
2022-09-07T08:20:06.332Z,19.40
2022-09-07T08:22:39.238Z,19.50
2022-09-07T08:25:10.878Z,19.60
2022-09-07T08:27:40.960Z,19.72
2022-09-07T08:30:12.926Z,19.80
2022-09-07T08:32:42.695Z,20.00
2022-09-07T08:35:12.902Z,20.20
2022-09-07T08:37:42.673Z,20.34
2022-09-07T08:40:17.731Z,20.70
2022-09-07T08:43:06.076Z,21.16
2022-09-07T08:45:47.443Z,21.46
2022-09-07T08:48:23.756Z,21.66
2022-09-07T08:51:03.254Z,21.70
2022-09-07T08:53:36.236Z,21.78
2022-09-07T08:56:13.020Z,21.90
2022-09-07T08:58:49.544Z,21.90
2022-09-07T09:01:31.832Z,22.34
2022-09-07T09:04:20.559Z,22.40
2022-09-07T09:07:10.153Z,22.50
2022-09-07T09:10:04.044Z,22.80
2022-09-07T09:13:01.229Z,23.24
2022-09-07T09:15:51.968Z,23.60
2022-09-07T09:18:42.984Z,23.70
2022-09-07T09:21:18.158Z,23.70
2022-09-07T09:23:53.775Z,23.60
2022-09-07T09:26:27.408Z,23.80
2022-09-07T09:28:57.309Z,23.90
2022-09-07T09:31:35.410Z,24.10
2022-09-07T09:34:15.414Z,24.30
2022-09-07T09:36:49.453Z,24.56
2022-09-07T09:39:31.934Z,25.20
2022-09-07T09:42:21.439Z,25.62
2022-09-07T09:44:53.175Z,26.06
2022-09-07T09:47:31.821Z,25.92
2022-09-07T09:50:07.542Z,25.90
2022-09-07T09:52:47.915Z,25.90
2022-09-07T09:55:34.990Z,25.94
2022-09-07T10:01:33.312Z,25.82
2022-09-07T10:04:29.249Z,25.70
2022-09-07T10:07:14.545Z,25.80
2022-09-07T10:09:52.489Z,25.90
2022-09-07T10:12:31.679Z,25.98
2022-09-07T10:15:06.083Z,26.60
2022-09-07T10:17:40.840Z,27.00
2022-09-07T10:20:36.492Z,26.90
2022-09-07T10:23:19.221Z,26.86
2022-09-07T10:25:48.990Z,26.90
2022-09-07T10:28:24.252Z,27.16
2022-09-07T10:31:18.531Z,27.60
2022-09-07T10:37:01.373Z,28.30
2022-09-07T10:39:41.230Z,28.22
2022-09-07T10:42:29.027Z,28.30
2022-09-07T10:45:18.004Z,29.08
2022-09-07T10:48:03.111Z,29.30
2022-09-07T10:50:42.525Z,29.40
2022-09-07T10:53:41.663Z,29.50
2022-09-07T10:56:18.354Z,29.70
2022-09-07T10:59:11.856Z,29.70
2022-09-07T11:01:55.666Z,30.28
2022-09-07T11:04:47.495Z,30.40
2022-09-07T11:07:37.527Z,30.90
2022-09-07T11:10:24.642Z,30.90
2022-09-07T11:13:00.254Z,30.90
2022-09-07T11:15:35.499Z,31.22
2022-09-07T11:18:13.910Z,31.50
2022-09-07T11:20:54.581Z,31.20
2022-09-07T11:23:32.369Z,31.30
2022-09-07T11:26:10.805Z,31.74
2022-09-07T11:31:55.856Z,32.14
2022-09-07T11:34:35.801Z,32.08
2022-09-07T11:37:18.700Z,32.50
2022-09-07T11:39:58.022Z,32.60
2022-09-07T11:42:46.044Z,32.96
2022-09-07T11:45:23.003Z,32.80
2022-09-07T11:48:01.127Z,33.14
2022-09-07T11:50:37.913Z,33.30
2022-09-07T11:53:17.412Z,33.68
2022-09-07T11:55:54.287Z,33.20
2022-09-07T11:59:18.103Z,33.88
2022-09-07T12:02:05.838Z,34.16
2022-09-07T12:05:08.097Z,34.40
2022-09-07T12:07:59.407Z,34.50
2022-09-07T12:11:09.713Z,34.60
2022-09-07T12:14:15.256Z,34.54
2022-09-07T12:17:30.539Z,34.00
2022-09-07T12:20:17.220Z,33.86
2022-09-07T12:23:04.578Z,33.34
2022-09-07T12:25:37.106Z,33.10
2022-09-07T12:28:17.571Z,33.00
2022-09-07T12:30:59.146Z,32.70
2022-09-07T12:33:36.154Z,32.80
2022-09-07T12:36:50.364Z,32.94
2022-09-07T12:39:28.899Z,33.90
2022-09-07T12:42:32.959Z,34.82
2022-09-07T12:45:50.220Z,35.00
2022-09-07T12:48:38.214Z,34.74
2022-09-07T13:07:35.472Z,35.12
2022-09-07T13:10:26.411Z,35.00
2022-09-07T13:13:04.290Z,35.36
2022-09-07T13:15:43.173Z,35.70
2022-09-07T13:18:41.632Z,36.08
2022-09-07T13:21:43.044Z,36.10
2022-09-07T13:24:56.269Z,36.26
2022-09-07T13:27:50.379Z,37.30
2022-09-07T13:30:34.538Z,37.86
2022-09-07T13:33:53.994Z,38.22
2022-09-07T13:36:51.158Z,38.18
2022-09-07T13:39:22.895Z,38.30
2022-09-07T13:41:58.154Z,38.40
2022-09-07T13:44:33.982Z,38.44
2022-09-07T13:47:20.493Z,37.98
2022-09-07T13:50:04.737Z,37.44
2022-09-07T13:52:53.523Z,37.80
2022-09-07T13:55:34.397Z,38.12
2022-09-07T13:58:32.332Z,38.22
2022-09-07T14:01:13.948Z,38.28
2022-09-07T14:03:50.755Z,38.56
2022-09-07T14:06:44.958Z,38.60
2022-09-07T14:09:20.318Z,38.68
2022-09-07T14:12:00.169Z,39.20
2022-09-07T14:14:32.584Z,39.10
2022-09-07T14:17:11.311Z,39.30
2022-09-07T14:19:46.035Z,39.40
2022-09-07T14:22:23.694Z,38.96
2022-09-07T14:24:58.351Z,38.60
2022-09-07T14:27:35.413Z,38.78
2022-09-07T14:30:23.851Z,38.80
2022-09-07T14:32:58.098Z,38.72
2022-09-07T14:35:34.735Z,38.56
2022-09-07T14:41:20.130Z,38.60
2022-09-07T14:43:59.473Z,38.82
2022-09-07T14:46:33.485Z,38.70
2022-09-07T14:49:18.189Z,38.60
2022-09-07T14:51:49.418Z,38.92
2022-09-07T14:54:25.377Z,39.44
2022-09-07T14:57:29.845Z,39.90
2022-09-07T15:00:20.102Z,39.80
2022-09-07T15:02:50.412Z,39.80
2022-09-07T15:05:26.616Z,39.88
2022-09-07T15:07:59.366Z,39.92
2022-09-07T15:10:36.004Z,40.14
2022-09-07T15:13:27.313Z,40.20
2022-09-07T15:16:03.340Z,40.10
2022-09-07T15:18:53.868Z,39.80
2022-09-07T15:21:29.761Z,40.10
2022-09-07T15:24:01.747Z,40.28
2022-09-07T15:29:30.433Z,40.20
2022-09-07T15:32:04.862Z,40.16
2022-09-07T15:34:35.561Z,40.18
2022-09-07T15:38:01.156Z,40.36
2022-09-07T15:39:56.403Z,40.46
2022-09-07T15:45:18.480Z,40.00
2022-09-07T15:47:52.470Z,39.90
2022-09-07T15:50:23.606Z,39.80
2022-09-07T15:52:54.534Z,39.10
2022-09-07T15:55:24.787Z,38.20
2022-09-07T15:58:10.587Z,37.50
2022-09-07T16:00:41.273Z,36.22
2022-09-07T16:03:12.480Z,35.16
2022-09-07T16:05:44.529Z,34.40
2022-09-07T16:11:18.462Z,32.84
2022-09-07T16:13:55.333Z,32.02
2022-09-07T16:17:25.722Z,31.42
2022-09-07T16:19:20.589Z,31.00
2022-09-07T16:21:51.633Z,30.70
2022-09-07T16:24:21.837Z,30.30
2022-09-07T16:26:52.262Z,29.70
2022-09-07T16:29:22.606Z,29.30
2022-09-07T16:34:44.930Z,28.44
2022-09-07T16:37:16.295Z,28.00
2022-09-07T16:39:46.501Z,27.60
2022-09-07T16:42:17.280Z,27.30
2022-09-07T16:44:48.799Z,26.94
2022-09-07T16:47:19.047Z,26.66
2022-09-07T16:49:49.753Z,26.40
2022-09-07T16:52:20.892Z,26.10
2022-09-07T16:54:53.832Z,25.70
2022-09-07T16:57:24.721Z,25.36
2022-09-07T16:59:56.141Z,25.00
2022-09-07T17:02:26.489Z,24.80
2022-09-07T17:04:56.940Z,24.50
2022-09-07T17:07:27.209Z,24.26
2022-09-07T17:09:57.305Z,24.00
2022-09-07T17:12:27.656Z,23.76
2022-09-07T17:14:57.563Z,23.60
2022-09-07T17:17:27.372Z,23.40
2022-09-07T17:19:58.660Z,23.20
2022-09-07T17:22:29.551Z,23.10
2022-09-07T17:24:59.541Z,22.90
2022-09-07T17:27:29.505Z,22.70
2022-09-07T17:29:59.604Z,22.50
2022-09-07T17:32:32.284Z,22.40
2022-09-07T17:35:02.519Z,22.24
2022-09-07T17:37:32.640Z,22.10
2022-09-07T17:40:05.776Z,22.00
2022-09-07T17:45:27.811Z,21.80
2022-09-07T17:47:59.258Z,21.70
2022-09-07T17:50:31.784Z,21.60
2022-09-07T17:53:02.054Z,21.60
2022-09-07T17:55:32.464Z,21.50
2022-09-07T17:58:04.660Z,21.40
2022-09-07T18:00:36.313Z,21.40
2022-09-07T18:03:07.337Z,21.40
2022-09-07T18:05:37.558Z,21.40
2022-09-07T18:08:10.200Z,21.40
2022-09-07T18:13:36.319Z,21.30
2022-09-07T18:16:15.672Z,21.30
2022-09-07T18:18:48.699Z,21.20
2022-09-07T18:21:21.995Z,21.20
2022-09-07T18:23:56.575Z,21.18
2022-09-07T18:26:27.988Z,21.10
2022-09-07T18:29:12.968Z,21.10
2022-09-07T18:31:51.039Z,21.08
2022-09-07T18:34:24.146Z,21.00
2022-09-07T18:36:55.180Z,20.90
2022-09-07T18:39:26.424Z,20.90
2022-09-07T18:41:56.941Z,20.80
2022-09-07T18:47:23.162Z,20.60
2022-09-07T18:49:59.097Z,20.50
2022-09-07T18:55:21.103Z,20.30
2022-09-07T18:57:51.966Z,20.30
2022-09-07T19:00:22.594Z,20.20
2022-09-07T19:02:53.139Z,20.12
2022-09-07T19:08:14.488Z,20.04
2022-09-07T19:10:44.815Z,20.00
2022-09-07T19:13:15.119Z,20.00
2022-09-07T19:15:45.182Z,19.90
2022-09-07T19:18:15.262Z,19.90
2022-09-07T19:20:45.336Z,19.80
2022-09-07T19:23:16.101Z,19.80
2022-09-07T19:25:46.654Z,19.70
2022-09-07T19:28:18.503Z,19.70
2022-09-07T19:30:48.697Z,19.60
2022-09-07T19:33:18.973Z,19.60
2022-09-07T19:35:49.172Z,19.50
2022-09-07T19:38:19.795Z,19.50
2022-09-07T19:40:58.000Z,19.44
2022-09-07T19:43:32.086Z,19.40
2022-09-07T19:46:03.463Z,19.40
2022-09-07T19:48:33.510Z,19.34
2022-09-07T19:51:05.121Z,19.30
2022-09-07T19:53:36.809Z,19.30
2022-09-07T19:56:09.685Z,19.30
2022-09-07T19:58:43.183Z,19.30
2022-09-07T20:01:16.810Z,19.28
2022-09-07T20:03:55.569Z,19.20
2022-09-07T20:06:28.416Z,19.20
2022-09-07T20:08:59.504Z,19.12
2022-09-07T20:11:31.261Z,19.10
2022-09-07T20:14:01.623Z,19.10
2022-09-07T20:16:32.179Z,19.00
2022-09-07T20:19:02.500Z,19.00
2022-09-07T20:21:33.063Z,18.90
2022-09-07T20:24:04.031Z,18.90
2022-09-07T20:26:34.159Z,18.86
2022-09-07T20:29:26.568Z,18.80
2022-09-07T20:31:54.082Z,18.80
2022-09-07T20:34:26.929Z,18.80
2022-09-07T20:36:57.454Z,18.70
2022-09-07T20:39:27.465Z,18.70
2022-09-07T20:41:57.377Z,18.68
2022-09-07T20:44:27.418Z,18.60
2022-09-07T20:46:57.316Z,18.54
2022-09-07T20:49:27.222Z,18.50
2022-09-07T20:51:56.982Z,18.46
2022-09-07T20:54:26.774Z,18.40
2022-09-07T20:56:58.402Z,18.40
2022-09-07T20:59:30.729Z,18.30
2022-09-07T21:02:00.555Z,18.24
2022-09-07T21:04:30.339Z,18.20
2022-09-07T21:07:00.355Z,18.16
2022-09-07T21:09:31.084Z,18.10
2022-09-07T21:12:00.769Z,18.00
2022-09-07T21:14:30.541Z,18.00
2022-09-07T21:17:00.267Z,18.00
2022-09-07T21:19:30.023Z,17.90
2022-09-07T21:21:59.656Z,17.90
2022-09-07T21:24:29.568Z,17.90
2022-09-07T21:26:59.322Z,17.90
2022-09-07T21:29:28.992Z,17.88
2022-09-07T21:31:58.681Z,17.82
2022-09-07T21:34:28.547Z,17.80
2022-09-07T21:36:58.207Z,17.80
2022-09-07T21:39:28.116Z,17.80
2022-09-07T21:41:57.917Z,17.70
2022-09-07T21:44:27.699Z,17.70
2022-09-07T21:46:57.727Z,17.68
2022-09-07T21:49:27.449Z,17.64
2022-09-07T21:51:57.259Z,17.60
2022-09-07T21:54:27.078Z,17.60
2022-09-07T21:56:56.850Z,17.60
2022-09-07T21:59:26.575Z,17.60
2022-09-07T22:01:56.351Z,17.60
2022-09-07T22:04:26.202Z,17.52
2022-09-07T22:06:56.008Z,17.50
2022-09-07T22:09:25.777Z,17.50
2022-09-07T22:11:55.479Z,17.50
2022-09-07T22:14:25.401Z,17.50
2022-09-07T22:16:55.612Z,17.50
2022-09-07T22:19:25.416Z,17.50
2022-09-07T22:21:55.097Z,17.50
2022-09-07T22:24:24.703Z,17.48
2022-09-07T22:26:54.452Z,17.40
2022-09-07T22:29:24.166Z,17.40
2022-09-07T22:31:53.832Z,17.30
2022-09-07T22:34:23.595Z,17.20
2022-09-07T22:36:53.388Z,17.20
2022-09-07T22:39:23.133Z,17.10
2022-09-07T22:41:52.945Z,17.10
2022-09-07T22:44:24.039Z,17.10
2022-09-07T22:46:53.817Z,17.10
2022-09-07T22:49:23.701Z,17.00
2022-09-07T22:51:53.422Z,17.00
2022-09-07T22:54:23.443Z,16.92
2022-09-07T22:56:53.215Z,16.90
2022-09-07T22:59:22.828Z,16.90
2022-09-07T23:01:52.555Z,16.80
2022-09-07T23:04:22.293Z,16.80
2022-09-07T23:06:52.064Z,16.80
2022-09-07T23:09:21.741Z,16.80
2022-09-07T23:11:51.500Z,16.72
2022-09-07T23:14:23.162Z,16.70
2022-09-07T23:16:53.254Z,16.70
2022-09-07T23:19:23.241Z,16.68
2022-09-07T23:21:52.925Z,16.60
2022-09-07T23:24:22.688Z,16.60
2022-09-07T23:26:52.401Z,16.60
2022-09-07T23:29:22.146Z,16.62
2022-09-07T23:31:51.890Z,16.64
2022-09-07T23:34:21.647Z,16.70
2022-09-07T23:36:51.542Z,16.60
2022-09-07T23:39:21.883Z,16.60
2022-09-07T23:41:51.559Z,16.60
2022-09-07T23:44:21.268Z,16.60
2022-09-07T23:46:51.055Z,16.60
2022-09-07T23:49:20.939Z,16.60
2022-09-07T23:51:54.412Z,16.52
2022-09-07T23:54:24.227Z,16.50
2022-09-07T23:56:54.356Z,16.48
2022-09-07T23:59:24.206Z,16.40
